Time;durP1;ratioP1;P1;durP2;ratioP2;P2;SDS_P1;SDS_P2;PMS_P1;PMS_P2;Temp;Humidity;BMP_temperature;BMP_pressure;BME280_temperature;BME280_humidity;BME280_pressure;Samples;Min_cycle;Max_cycle;Signal;HPM_P1;HPM_P2
2021/09/25 00:00:24;;;;;;;11.40;3.63;;;12.30;99.90;;;;;;5022488;28;20660;-70
2021/09/25 00:02:51;;;;;;;9.57;4.10;;;12.30;99.90;;;;;;5025853;28;20574;-70
2021/09/25 00:05:18;;;;;;;6.27;2.90;;;12.40;99.90;;;;;;5033045;28;20203;-71
2021/09/25 00:07:45;;;;;;;11.10;4.20;;;12.40;99.90;;;;;;5033668;28;20198;-71
2021/09/25 00:10:12;;;;;;;6.77;3.30;;;12.40;99.90;;;;;;5033689;28;20210;-71
2021/09/25 00:12:40;;;;;;;11.53;3.40;;;12.40;99.90;;;;;;5033745;28;20213;-70
2021/09/25 00:15:08;;;;;;;12.07;3.40;;;12.40;99.90;;;;;;5033419;28;20211;-71
2021/09/25 00:17:35;;;;;;;14.07;3.87;;;12.50;99.90;;;;;;5033767;28;20745;-72
2021/09/25 00:20:02;;;;;;;10.83;4.43;;;12.50;99.90;;;;;;5032980;28;20209;-71
2021/09/25 00:22:29;;;;;;;11.87;3.67;;;12.50;99.90;;;;;;5033093;28;20218;-70
2021/09/25 00:24:56;;;;;;;14.33;3.67;;;12.60;99.90;;;;;;5027962;28;20207;-71
2021/09/25 00:27:24;;;;;;;13.73;4.47;;;12.60;99.90;;;;;;5025590;28;20733;-71
2021/09/25 00:29:52;;;;;;;11.70;3.77;;;12.60;99.90;;;;;;5035648;28;20294;-71
2021/09/25 00:32:19;;;;;;;14.07;4.30;;;12.70;99.90;;;;;;5033508;28;20225;-72
2021/09/25 00:34:46;;;;;;;12.57;4.47;;;12.70;99.90;;;;;;5032833;28;20249;-71
2021/09/25 00:37:13;;;;;;;13.33;4.80;;;12.70;99.90;;;;;;5033234;28;20234;-71
2021/09/25 00:39:40;;;;;;;10.30;3.73;;;12.70;99.90;;;;;;5033169;28;20211;-72
2021/09/25 00:42:07;;;;;;;11.40;3.73;;;12.70;99.90;;;;;;5019834;28;20647;-71
2021/09/25 00:44:34;;;;;;;10.57;3.20;;;12.80;99.90;;;;;;5033359;28;20733;-71
2021/09/25 00:47:02;;;;;;;10.23;3.43;;;12.80;99.90;;;;;;5033379;28;20260;-71
2021/09/25 00:49:29;;;;;;;12.47;3.63;;;12.80;99.90;;;;;;5032470;28;20289;-70
2021/09/25 00:51:56;;;;;;;13.87;3.80;;;12.80;99.90;;;;;;5033286;28;20206;-72
2021/09/25 00:54:23;;;;;;;7.23;3.70;;;12.90;99.90;;;;;;5032958;28;20237;-72
2021/09/25 00:56:51;;;;;;;10.37;3.97;;;12.90;99.90;;;;;;5033110;28;20222;-72
2021/09/25 00:59:19;;;;;;;9.60;3.77;;;12.90;99.90;;;;;;5029175;28;20214;-72
2021/09/25 01:01:47;;;;;;;11.83;3.73;;;13.00;99.90;;;;;;5023038;28;20211;-72
2021/09/25 01:04:15;;;;;;;10.70;4.33;;;13.00;99.90;;;;;;5032332;28;20218;-71
2021/09/25 01:06:42;;;;;;;8.27;4.30;;;13.00;99.90;;;;;;5032293;28;20213;-70
2021/09/25 01:09:09;;;;;;;10.50;4.97;;;13.00;99.90;;;;;;5031996;28;20209;-71
2021/09/25 01:11:36;;;;;;;8.83;3.43;;;13.00;99.90;;;;;;5032461;28;20224;-71
2021/09/25 01:14:04;;;;;;;9.97;3.80;;;13.10;99.90;;;;;;5032100;28;20657;-71
2021/09/25 01:16:32;;;;;;;9.73;3.70;;;13.10;99.90;;;;;;5032267;28;20260;-71
2021/09/25 01:18:59;;;;;;;8.77;3.90;;;13.10;99.90;;;;;;5031932;28;20230;-72
2021/09/25 01:21:28;;;;;;;9.23;3.13;;;13.10;99.90;;;;;;5032592;28;20208;-71
2021/09/25 01:23:54;;;;;;;9.57;4.47;;;13.10;99.90;;;;;;5031858;28;20297;-71
2021/09/25 01:26:24;;;;;;;9.93;3.93;;;13.20;99.90;;;;;;5032358;28;20203;-71
2021/09/25 01:28:52;;;;;;;10.43;4.03;;;13.10;99.90;;;;;;5031295;28;20789;-70
2021/09/25 01:31:20;;;;;;;8.67;3.93;;;13.20;99.90;;;;;;5031621;28;20659;-72
2021/09/25 01:33:49;;;;;;;11.37;3.60;;;13.20;99.90;;;;;;5032393;28;20673;-71
2021/09/25 01:36:17;;;;;;;8.30;3.63;;;13.20;99.90;;;;;;5031842;28;20257;-71
2021/09/25 01:38:45;;;;;;;9.83;3.47;;;13.30;99.90;;;;;;5031619;28;20206;-72
2021/09/25 01:41:13;;;;;;;11.23;3.70;;;13.30;99.90;;;;;;5032070;28;20546;-72
2021/09/25 01:43:40;;;;;;;9.93;3.80;;;13.30;99.90;;;;;;5031936;28;20738;-70
2021/09/25 01:46:07;;;;;;;10.83;3.73;;;13.30;99.90;;;;;;5031849;28;20242;-70
2021/09/25 01:48:34;;;;;;;7.63;3.50;;;13.40;99.90;;;;;;5030843;28;20679;-71
2021/09/25 01:51:01;;;;;;;8.03;3.77;;;13.40;99.90;;;;;;5032217;28;20233;-70
2021/09/25 01:53:28;;;;;;;7.23;3.47;;;13.40;99.90;;;;;;5031306;28;20202;-70
2021/09/25 01:55:56;;;;;;;9.17;3.47;;;13.40;99.90;;;;;;5032253;28;20589;-70
2021/09/25 01:58:23;;;;;;;12.83;4.53;;;13.50;99.90;;;;;;5031522;28;20298;-72
2021/09/25 02:00:50;;;;;;;9.60;3.90;;;13.50;99.90;;;;;;5032020;28;20242;-71
2021/09/25 02:03:17;;;;;;;7.30;3.80;;;13.50;99.90;;;;;;5031670;28;20285;-71
2021/09/25 02:05:44;;;;;;;7.87;3.60;;;13.50;99.90;;;;;;5031437;28;20290;-71
2021/09/25 02:08:11;;;;;;;9.97;3.87;;;13.60;99.90;;;;;;5031323;28;20746;-70
2021/09/25 02:10:38;;;;;;;7.70;3.90;;;13.60;99.90;;;;;;5031613;28;20297;-71
2021/09/25 02:13:06;;;;;;;10.80;4.50;;;13.60;99.90;;;;;;5032064;28;20205;-71
2021/09/25 02:15:34;;;;;;;7.97;3.90;;;13.70;99.90;;;;;;5031694;28;20214;-72
2021/09/25 02:18:01;;;;;;;7.13;3.87;;;13.70;99.90;;;;;;5031490;28;20286;-72
2021/09/25 02:20:28;;;;;;;8.57;4.03;;;13.70;99.90;;;;;;5031741;28;20229;-71
2021/09/25 02:22:55;;;;;;;10.00;4.17;;;13.70;99.90;;;;;;5031907;28;20210;-71
2021/09/25 02:25:22;;;;;;;8.37;4.50;;;13.80;99.90;;;;;;5031879;28;20698;-70
2021/09/25 02:27:51;;;;;;;7.07;3.87;;;13.80;99.90;;;;;;5030965;28;20238;-71
2021/09/25 02:30:21;;;;;;;5.73;3.87;;;13.80;99.90;;;;;;5030462;28;20633;-72
2021/09/25 02:32:48;;;;;;;7.43;3.50;;;13.90;99.90;;;;;;5032098;28;20623;-72
2021/09/25 02:35:18;;;;;;;8.43;4.03;;;13.90;99.90;;;;;;5031195;28;20209;-72
2021/09/25 02:37:46;;;;;;;9.33;3.97;;;13.90;99.90;;;;;;5031318;28;20698;-72
2021/09/25 02:40:13;;;;;;;9.27;3.63;;;13.90;99.90;;;;;;5031023;28;20214;-71
2021/09/25 02:42:40;;;;;;;6.03;4.00;;;13.90;99.90;;;;;;5031354;28;20215;-70
2021/09/25 02:45:09;;;;;;;6.43;4.10;;;13.90;99.90;;;;;;5031146;28;20581;-71
2021/09/25 02:47:39;;;;;;;7.77;4.13;;;14.00;99.90;;;;;;5031622;28;20206;-71
2021/09/25 02:50:08;;;;;;;11.87;3.97;;;14.00;99.90;;;;;;5030764;28;20213;-70
2021/09/25 02:52:34;;;;;;;8.00;3.60;;;14.00;99.90;;;;;;5031234;28;20574;-71
2021/09/25 02:55:01;;;;;;;7.53;3.73;;;14.00;99.90;;;;;;5031189;28;20208;-71
2021/09/25 02:57:28;;;;;;;8.90;3.90;;;14.10;99.90;;;;;;5031294;28;20226;-70
2021/09/25 02:59:55;;;;;;;8.40;4.30;;;14.10;99.90;;;;;;5031081;28;20217;-71
2021/09/25 03:02:22;;;;;;;6.60;3.73;;;14.10;99.90;;;;;;5031501;28;20259;-71
2021/09/25 03:04:50;;;;;;;6.20;3.67;;;14.10;99.90;;;;;;5030662;28;20301;-70
2021/09/25 03:07:17;;;;;;;8.23;3.73;;;14.10;99.90;;;;;;5031078;28;20215;-71
2021/09/25 03:09:44;;;;;;;7.17;4.10;;;14.20;99.90;;;;;;5030214;28;20224;-71
2021/09/25 03:12:11;;;;;;;6.97;3.83;;;14.20;99.90;;;;;;5030358;28;20225;-71
2021/09/25 03:14:38;;;;;;;5.07;3.93;;;14.20;99.90;;;;;;5030717;28;20213;-71
2021/09/25 03:17:05;;;;;;;7.83;4.10;;;14.20;99.90;;;;;;5030449;28;20226;-71
2021/09/25 03:19:32;;;;;;;6.00;3.57;;;14.30;99.90;;;;;;5027813;28;20207;-71
2021/09/25 03:22:00;;;;;;;4.60;3.60;;;14.20;99.90;;;;;;5031110;28;20210;-71
2021/09/25 03:24:27;;;;;;;5.67;4.17;;;14.30;99.90;;;;;;5030944;28;20219;-71
2021/09/25 03:26:54;;;;;;;6.93;4.10;;;14.30;99.90;;;;;;5024410;28;20214;-71
2021/09/25 03:29:21;;;;;;;4.83;3.60;;;14.30;99.90;;;;;;5025028;28;20242;-71
2021/09/25 03:31:49;;;;;;;9.70;4.63;;;14.40;99.90;;;;;;5026094;28;20727;-71
2021/09/25 03:34:16;;;;;;;6.77;4.20;;;14.40;99.90;;;;;;5030786;28;20583;-71
2021/09/25 03:36:43;;;;;;;8.50;5.00;;;14.40;99.90;;;;;;5030558;28;20231;-71
2021/09/25 03:39:11;;;;;;;6.07;4.60;;;14.40;99.90;;;;;;5030508;28;20217;-71
2021/09/25 03:41:38;;;;;;;9.40;4.13;;;14.40;99.90;;;;;;5030673;28;20686;-70
2021/09/25 03:44:05;;;;;;;5.60;4.13;;;14.50;99.90;;;;;;5028858;28;20303;-70
2021/09/25 03:46:33;;;;;;;8.30;4.07;;;14.50;99.90;;;;;;5034271;28;20207;-70
2021/09/25 03:49:00;;;;;;;8.10;4.60;;;14.50;99.90;;;;;;5033911;28;20670;-70
2021/09/25 03:51:26;;;;;;;6.33;4.20;;;14.50;99.90;;;;;;5034059;28;20209;-70
2021/09/25 03:53:53;;;;;;;5.80;4.73;;;14.50;99.90;;;;;;5033149;28;20206;-70
2021/09/25 03:56:22;;;;;;;7.10;4.60;;;14.60;99.90;;;;;;5034203;28;20552;-70
2021/09/25 03:58:49;;;;;;;11.23;5.03;;;14.60;99.90;;;;;;5029571;28;20207;-69
2021/09/25 04:01:17;;;;;;;7.77;5.00;;;14.60;99.90;;;;;;5026987;28;20211;-70
2021/09/25 04:03:44;;;;;;;8.40;5.10;;;14.60;99.90;;;;;;5026349;28;20210;-70
2021/09/25 04:06:11;;;;;;;8.47;5.10;;;14.60;99.90;;;;;;5033611;28;20253;-71
2021/09/25 04:08:38;;;;;;;6.93;4.93;;;14.60;99.90;;;;;;5033642;28;20210;-71
2021/09/25 04:11:05;;;;;;;7.83;5.03;;;14.60;99.90;;;;;;5033483;28;20264;-69
2021/09/25 04:13:34;;;;;;;7.20;5.23;;;14.70;99.90;;;;;;5033996;28;20207;-70
2021/09/25 04:16:01;;;;;;;9.27;5.43;;;14.70;99.90;;;;;;5034015;28;20339;-71
2021/09/25 04:18:27;;;;;;;7.27;5.30;;;14.70;99.90;;;;;;5033405;28;20583;-70
2021/09/25 04:20:54;;;;;;;7.90;5.60;;;14.80;99.90;;;;;;5033378;28;20855;-70
2021/09/25 04:23:21;;;;;;;5.93;5.03;;;14.70;99.90;;;;;;5033771;28;20202;-70
2021/09/25 04:25:48;;;;;;;8.60;5.47;;;14.70;99.90;;;;;;5033564;28;20220;-70
2021/09/25 04:28:15;;;;;;;6.73;5.13;;;14.70;99.90;;;;;;5032937;28;20226;-70
2021/09/25 04:30:43;;;;;;;10.17;5.30;;;14.70;99.90;;;;;;5031320;28;20214;-70
2021/09/25 04:33:11;;;;;;;10.07;5.40;;;14.80;99.90;;;;;;5032730;28;20217;-71
2021/09/25 04:35:39;;;;;;;6.73;5.27;;;14.80;99.90;;;;;;5032912;28;20198;-70
2021/09/25 04:38:07;;;;;;;7.77;5.57;;;14.80;99.90;;;;;;5033048;28;20232;-71
2021/09/25 04:40:34;;;;;;;8.13;6.27;;;14.80;99.90;;;;;;5033185;28;20199;-70
2021/09/25 04:43:02;;;;;;;8.20;5.73;;;14.80;99.90;;;;;;5033288;28;20206;-69
2021/09/25 04:45:29;;;;;;;8.27;5.83;;;14.80;99.90;;;;;;5033128;28;20203;-70
2021/09/25 04:47:58;;;;;;;9.13;5.60;;;14.90;99.90;;;;;;5022561;28;20207;-71
2021/09/25 04:50:28;;;;;;;9.93;6.10;;;14.90;99.90;;;;;;5032909;28;20242;-69
2021/09/25 04:52:56;;;;;;;7.43;6.07;;;14.90;99.90;;;;;;5026065;28;20289;-70
2021/09/25 04:55:22;;;;;;;9.73;5.73;;;14.90;99.90;;;;;;5013362;28;20203;-70
2021/09/25 04:57:49;;;;;;;11.60;6.50;;;14.90;99.90;;;;;;5032026;28;20230;-70
2021/09/25 05:00:17;;;;;;;9.97;6.17;;;14.90;99.90;;;;;;5032124;28;20210;-70
2021/09/25 05:02:44;;;;;;;8.60;6.00;;;15.00;99.90;;;;;;5033017;28;20941;-70
2021/09/25 05:05:12;;;;;;;9.67;6.33;;;15.00;99.90;;;;;;5033018;28;20257;-71
2021/09/25 05:07:39;;;;;;;10.80;6.47;;;15.00;99.90;;;;;;5032704;28;20213;-70
2021/09/25 05:10:07;;;;;;;8.47;6.53;;;15.00;99.90;;;;;;5032460;28;20211;-71
2021/09/25 05:12:34;;;;;;;10.57;6.00;;;15.10;99.90;;;;;;5032206;28;20613;-71
2021/09/25 05:15:00;;;;;;;9.77;6.70;;;15.10;99.90;;;;;;5033001;28;20213;-70
2021/09/25 05:17:27;;;;;;;11.17;6.43;;;15.10;99.90;;;;;;5032291;28;20306;-71
2021/09/25 05:19:54;;;;;;;11.30;6.93;;;15.10;99.90;;;;;;5031662;28;20207;-70
2021/09/25 05:22:23;;;;;;;9.43;6.40;;;15.20;99.90;;;;;;5032222;28;20210;-70
2021/09/25 05:24:49;;;;;;;11.83;6.60;;;15.20;99.90;;;;;;5032428;28;20387;-70
2021/09/25 05:27:16;;;;;;;9.30;6.63;;;15.20;99.90;;;;;;5034115;28;20206;-71
2021/09/25 05:29:43;;;;;;;10.57;6.33;;;15.20;99.90;;;;;;5036537;28;20202;-71
2021/09/25 05:32:10;;;;;;;10.60;6.70;;;15.20;99.90;;;;;;5032016;28;20214;-69
2021/09/25 05:34:37;;;;;;;10.17;7.00;;;15.30;99.90;;;;;;5031998;28;20217;-70
2021/09/25 05:37:04;;;;;;;9.20;6.47;;;15.30;99.90;;;;;;5029618;28;20233;-69
2021/09/25 05:39:33;;;;;;;11.17;7.10;;;15.40;99.90;;;;;;5036153;28;20210;-68
2021/09/25 05:42:00;;;;;;;10.33;7.00;;;15.40;99.90;;;;;;5027682;28;20210;-68
2021/09/25 05:44:26;;;;;;;8.37;6.47;;;15.40;99.90;;;;;;5027734;28;20668;-67
2021/09/25 05:46:53;;;;;;;12.90;6.13;;;15.50;99.90;;;;;;5031668;28;20297;-69
2021/09/25 05:49:20;;;;;;;8.50;6.27;;;15.50;99.90;;;;;;5031398;28;20221;-69
2021/09/25 05:51:47;;;;;;;11.17;6.77;;;15.50;99.90;;;;;;5031539;28;20277;-70
2021/09/25 05:54:14;;;;;;;8.63;6.67;;;15.60;99.90;;;;;;5032230;28;20206;-70
2021/09/25 05:56:42;;;;;;;10.90;7.23;;;15.60;99.90;;;;;;5031359;28;20214;-69
2021/09/25 05:59:09;;;;;;;7.97;6.33;;;15.60;99.90;;;;;;5031471;28;20293;-69
2021/09/25 06:01:37;;;;;;;10.40;7.23;;;15.60;99.90;;;;;;5039959;28;20209;-68
2021/09/25 06:04:04;;;;;;;10.23;6.60;;;15.60;99.90;;;;;;5027284;28;20291;-69
2021/09/25 06:06:31;;;;;;;11.67;7.00;;;15.60;99.90;;;;;;5035791;28;20683;-70
2021/09/25 06:08:57;;;;;;;10.53;7.17;;;15.60;99.90;;;;;;5027980;28;20237;-68
2021/09/25 06:11:24;;;;;;;11.93;7.83;;;15.60;99.90;;;;;;5020803;28;20205;-69
2021/09/25 06:13:53;;;;;;;9.63;7.83;;;15.60;99.90;;;;;;5039152;28;20300;-69
2021/09/25 06:16:19;;;;;;;8.47;7.20;;;15.60;99.90;;;;;;5031574;28;20682;-69
2021/09/25 06:18:46;;;;;;;10.43;7.00;;;15.70;99.90;;;;;;5031076;28;20233;-68
2021/09/25 06:21:14;;;;;;;8.93;7.27;;;15.70;99.90;;;;;;5037073;28;20305;-68
2021/09/25 06:23:41;;;;;;;13.37;7.93;;;15.70;99.90;;;;;;5032790;28;20268;-69
2021/09/25 06:26:10;;;;;;;12.93;8.03;;;15.80;99.90;;;;;;5035551;28;20628;-67
2021/09/25 06:28:37;;;;;;;10.53;7.37;;;15.80;99.90;;;;;;5030571;28;20234;-69
2021/09/25 06:31:05;;;;;;;10.47;7.77;;;15.80;99.90;;;;;;5033656;28;20708;-70
2021/09/25 06:33:32;;;;;;;10.30;6.87;;;15.80;99.90;;;;;;5032951;28;20640;-69
2021/09/25 06:35:59;;;;;;;12.07;7.77;;;15.90;99.90;;;;;;5030805;28;20280;-69
2021/09/25 06:38:26;;;;;;;10.13;8.03;;;15.90;99.90;;;;;;5031287;28;20276;-69
2021/09/25 06:40:53;;;;;;;14.10;8.53;;;15.90;99.90;;;;;;5031653;28;20669;-69
2021/09/25 06:43:20;;;;;;;12.23;8.13;;;16.00;99.90;;;;;;5035117;28;20289;-69
2021/09/25 06:45:47;;;;;;;11.17;8.20;;;16.10;99.90;;;;;;5034084;28;20214;-67
2021/09/25 06:48:15;;;;;;;11.67;7.37;;;16.10;99.90;;;;;;5031106;28;20309;-70
2021/09/25 06:50:42;;;;;;;12.27;7.70;;;16.20;99.90;;;;;;5038328;28;20206;-70
2021/09/25 06:53:09;;;;;;;13.33;8.33;;;16.20;99.90;;;;;;5037207;28;20208;-70
2021/09/25 06:55:36;;;;;;;12.60;8.77;;;16.20;99.90;;;;;;5029762;28;20301;-69
2021/09/25 06:58:03;;;;;;;13.33;8.73;;;16.20;99.90;;;;;;5026936;28;20218;-69
2021/09/25 07:00:30;;;;;;;13.03;8.13;;;16.20;99.90;;;;;;5031484;28;20240;-70
2021/09/25 07:02:57;;;;;;;16.57;8.87;;;16.30;99.90;;;;;;5028967;28;20287;-70
2021/09/25 07:05:28;;;;;;;13.47;9.30;;;16.30;99.90;;;;;;5031887;28;20298;-70
2021/09/25 07:07:55;;;;;;;11.90;8.70;;;16.40;99.90;;;;;;5040659;28;20195;-69
2021/09/25 07:10:21;;;;;;;10.63;8.30;;;16.40;99.90;;;;;;5031828;28;20210;-68
2021/09/25 07:12:48;;;;;;;15.00;9.33;;;16.40;99.90;;;;;;5025498;28;20907;-69
2021/09/25 07:15:15;;;;;;;13.67;8.13;;;16.50;99.90;;;;;;5030415;28;20230;-69
2021/09/25 07:17:42;;;;;;;11.40;8.80;;;16.50;99.90;;;;;;5042154;28;20222;-69
2021/09/25 07:20:10;;;;;;;13.20;9.47;;;16.50;99.90;;;;;;5035083;28;20260;-68
2021/09/25 07:22:38;;;;;;;11.63;9.10;;;16.50;99.90;;;;;;5037224;28;20225;-69
2021/09/25 07:25:05;;;;;;;13.80;9.67;;;16.50;99.90;;;;;;5033221;28;20217;-68
2021/09/25 07:27:32;;;;;;;12.07;9.10;;;16.50;99.90;;;;;;5040014;28;20230;-70
2021/09/25 07:29:59;;;;;;;14.13;9.43;;;16.50;99.90;;;;;;5039060;28;20213;-70
2021/09/25 07:32:26;;;;;;;11.67;9.37;;;16.50;99.90;;;;;;5037382;28;20593;-69
2021/09/25 07:34:53;;;;;;;13.07;9.63;;;16.50;99.90;;;;;;5034800;28;20221;-71
2021/09/25 07:37:19;;;;;;;12.37;9.87;;;16.50;99.90;;;;;;5032745;28;20229;-69
2021/09/25 07:39:48;;;;;;;14.47;9.93;;;16.50;99.90;;;;;;5031471;28;20297;-69
2021/09/25 07:42:14;;;;;;;14.63;10.30;;;16.50;99.90;;;;;;5039785;28;20207;-69
2021/09/25 07:44:41;;;;;;;11.63;9.53;;;16.50;99.90;;;;;;5036685;28;20206;-70
2021/09/25 07:47:09;;;;;;;15.43;10.47;;;16.60;99.90;;;;;;5024191;28;20644;-71
2021/09/25 07:49:35;;;;;;;17.40;9.63;;;16.60;99.90;;;;;;5027601;28;20206;-70
2021/09/25 07:52:03;;;;;;;13.67;10.20;;;16.60;99.90;;;;;;5034664;28;20444;-72
2021/09/25 07:54:29;;;;;;;14.93;9.67;;;16.70;99.90;;;;;;5034484;28;20213;-71
2021/09/25 07:56:58;;;;;;;14.77;10.63;;;16.70;99.90;;;;;;5025558;28;20215;-72
2021/09/25 07:59:25;;;;;;;14.13;10.57;;;16.80;99.90;;;;;;5033570;28;20659;-71
2021/09/25 08:01:52;;;;;;;13.67;10.93;;;16.80;99.90;;;;;;5033637;28;20639;-72
2021/09/25 08:04:19;;;;;;;13.67;10.30;;;16.90;99.90;;;;;;5035112;28;20298;-72
2021/09/25 08:06:45;;;;;;;12.40;10.17;;;16.90;99.90;;;;;;5029933;28;20207;-72
2021/09/25 08:09:12;;;;;;;14.83;10.13;;;16.90;99.90;;;;;;5033196;28;20202;-71
2021/09/25 08:11:39;;;;;;;14.47;10.43;;;16.90;99.90;;;;;;5032927;28;20571;-71
2021/09/25 08:14:08;;;;;;;13.03;10.03;;;16.90;99.90;;;;;;5033459;28;20215;-70
2021/09/25 08:16:35;;;;;;;17.83;11.10;;;17.00;99.90;;;;;;5032778;28;20217;-73
2021/09/25 08:19:01;;;;;;;17.30;13.13;;;17.00;99.90;;;;;;5036898;28;20463;-71
2021/09/25 08:21:28;;;;;;;14.17;10.60;;;17.00;99.90;;;;;;5036581;28;20206;-72
2021/09/25 08:23:55;;;;;;;16.10;11.17;;;17.00;99.90;;;;;;5045383;28;20214;-71
2021/09/25 08:26:22;;;;;;;26.92;14.32;;;17.00;99.90;;;;;;5041957;28;20298;-73
2021/09/25 08:28:49;;;;;;;21.30;13.00;;;17.10;99.90;;;;;;5041469;28;20238;-69
2021/09/25 08:31:17;;;;;;;22.58;15.18;;;17.10;99.90;;;;;;5033287;28;20445;-71
2021/09/25 08:33:44;;;;;;;15.10;12.27;;;17.10;99.90;;;;;;5028976;28;20221;-71
2021/09/25 08:36:11;;;;;;;14.97;11.97;;;17.10;99.90;;;;;;5034599;28;20353;-70
2021/09/25 08:38:38;;;;;;;15.40;11.77;;;17.10;99.90;;;;;;5032603;28;20222;-70
2021/09/25 08:41:06;;;;;;;18.30;11.83;;;17.10;99.90;;;;;;5052032;28;20216;-71
2021/09/25 08:43:33;;;;;;;14.80;11.40;;;17.10;99.90;;;;;;5035046;28;20707;-72
2021/09/25 08:46:01;;;;;;;19.20;13.10;;;17.10;99.90;;;;;;5032687;28;20206;-72
2021/09/25 08:48:32;;;;;;;16.17;11.70;;;17.00;99.90;;;;;;5039332;28;20647;-72
2021/09/25 08:50:59;;;;;;;15.90;12.30;;;17.00;99.90;;;;;;5036911;28;20207;-72
2021/09/25 08:53:26;;;;;;;14.90;12.00;;;17.00;99.90;;;;;;5039186;28;20221;-69
2021/09/25 08:55:53;;;;;;;14.13;10.67;;;17.00;99.90;;;;;;5023116;28;20207;-70
2021/09/25 08:58:20;;;;;;;14.10;11.77;;;16.90;99.90;;;;;;5034635;28;20296;-71
2021/09/25 09:00:48;;;;;;;16.70;10.73;;;16.90;99.90;;;;;;5034464;28;20662;-70
2021/09/25 09:03:24;;;;;;;19.30;11.67;;;16.90;99.90;;;;;;5031573;28;20301;-71
2021/09/25 09:05:59;;;;;;;15.20;11.53;;;16.80;99.90;;;;;;5032762;28;20234;-72
2021/09/25 09:08:27;;;;;;;14.47;11.50;;;16.80;99.90;;;;;;5033050;28;20199;-72
2021/09/25 09:10:55;;;;;;;14.03;11.23;;;16.90;99.90;;;;;;5032694;28;20221;-73
2021/09/25 09:13:22;;;;;;;17.50;12.17;;;16.90;99.90;;;;;;5032373;28;20216;-70
2021/09/25 09:15:51;;;;;;;14.23;12.20;;;16.90;99.90;;;;;;5035557;28;20305;-72
2021/09/25 09:18:20;;;;;;;15.20;11.40;;;16.90;99.90;;;;;;5036905;28;20245;-72
2021/09/25 09:21:04;;;;;;;16.40;12.27;;;16.90;99.90;;;;;;5034941;28;20206;-73
2021/09/25 09:23:33;;;;;;;16.60;12.53;;;16.90;99.90;;;;;;5037915;28;20274;-72
2021/09/25 09:26:00;;;;;;;17.83;11.97;;;16.90;99.90;;;;;;5035196;28;20207;-71
2021/09/25 09:28:29;;;;;;;18.10;12.55;;;16.90;99.90;;;;;;5033011;28;20238;-71
2021/09/25 09:30:58;;;;;;;18.40;13.13;;;17.00;99.90;;;;;;5041040;28;20289;-71
2021/09/25 09:33:32;;;;;;;15.70;12.27;;;17.00;99.90;;;;;;5045075;28;20233;-70
2021/09/25 09:36:27;;;;;;;15.23;12.53;;;17.10;99.90;;;;;;5048556;28;20241;-71
2021/09/25 09:38:58;;;;;;;14.30;11.90;;;17.30;99.90;;;;;;5044538;28;20274;-72
2021/09/25 09:41:29;;;;;;;17.23;12.33;;;17.30;99.90;;;;;;5044041;28;20721;-71
2021/09/25 09:44:00;;;;;;;17.40;12.53;;;17.40;99.90;;;;;;5046058;28;20303;-71
2021/09/25 09:46:32;;;;;;;16.20;12.97;;;17.40;99.90;;;;;;5044351;28;20581;-71
2021/09/25 09:48:59;;;;;;;16.47;13.10;;;17.40;99.90;;;;;;5037025;28;20214;-72
2021/09/25 09:51:49;;;;;;;17.90;12.48;;;17.40;99.90;;;;;;5047509;28;20293;-71
2021/09/25 09:54:21;;;;;;;15.60;12.70;;;17.40;99.90;;;;;;5049287;28;20298;-72
2021/09/25 09:56:49;;;;;;;14.87;12.67;;;17.50;99.90;;;;;;5042682;28;20208;-71
2021/09/25 09:59:16;;;;;;;14.73;12.07;;;17.50;99.90;;;;;;5040278;28;20231;-71
2021/09/25 10:01:45;;;;;;;15.03;11.77;;;17.40;99.90;;;;;;5031269;28;20886;-71
2021/09/25 10:04:13;;;;;;;15.93;11.73;;;17.40;99.90;;;;;;5030749;28;20222;-75
2021/09/25 10:06:40;;;;;;;18.23;12.57;;;17.40;99.90;;;;;;5039061;28;20210;-69
2021/09/25 10:09:10;;;;;;;13.67;12.00;;;17.40;99.90;;;;;;5046997;28;20204;-71
2021/09/25 10:11:38;;;;;;;12.73;11.33;;;17.50;99.90;;;;;;5046038;28;20221;-71
2021/09/25 10:14:06;;;;;;;18.87;11.73;;;17.50;99.90;;;;;;5043483;28;20223;-71
2021/09/25 10:16:34;;;;;;;12.63;10.33;;;17.60;99.90;;;;;;5046718;28;20725;-71
2021/09/25 10:19:03;;;;;;;13.20;10.93;;;17.60;99.90;;;;;;5044327;28;20218;-70
2021/09/25 10:21:34;;;;;;;12.20;10.03;;;17.70;99.90;;;;;;5041967;28;20836;-73
2021/09/25 10:24:06;;;;;;;16.50;10.27;;;17.70;99.90;;;;;;5049562;28;20202;-71
2021/09/25 10:26:35;;;;;;;13.43;10.23;;;17.80;99.90;;;;;;5049991;28;20202;-71
2021/09/25 10:29:06;;;;;;;15.48;10.75;;;17.80;99.90;;;;;;5045938;28;20230;-74
2021/09/25 10:31:34;;;;;;;12.82;10.45;;;17.90;99.90;;;;;;5040689;28;20195;-71
2021/09/25 10:34:14;;;;;;;12.55;10.85;;;18.10;99.90;;;;;;5042550;28;20209;-71
2021/09/25 10:36:52;;;;;;;12.93;10.35;;;18.70;99.90;;;;;;5044397;28;20316;-71
2021/09/25 10:39:39;;;;;;;12.55;9.30;;;19.60;99.90;;;;;;5042705;28;20215;-72
2021/09/25 10:42:13;;;;;;;13.07;9.75;;;19.90;99.90;;;;;;5046385;28;20222;-72
2021/09/25 10:44:46;;;;;;;10.25;9.02;;;19.90;99.90;;;;;;5043193;28;20207;-71
2021/09/25 10:47:15;;;;;;;10.88;9.40;;;19.90;99.90;;;;;;5039226;28;20206;-72
2021/09/25 10:49:44;;;;;;;12.70;8.93;;;19.80;99.90;;;;;;5038878;28;20266;-71
2021/09/25 10:52:12;;;;;;;10.43;8.95;;;19.70;99.90;;;;;;5048196;28;20658;-72
2021/09/25 10:54:39;;;;;;;12.15;8.18;;;19.80;99.90;;;;;;5047303;28;20293;-73
2021/09/25 10:57:17;;;;;;;10.02;8.40;;;20.00;99.90;;;;;;5038915;28;20651;-72
2021/09/25 11:00:18;;;;;;;10.60;8.52;;;20.00;99.90;;;;;;5031022;28;20284;-72
2021/09/25 11:02:45;;;;;;;9.38;8.35;;;19.80;99.90;;;;;;5033789;28;20260;-73
2021/09/25 11:05:16;;;;;;;10.52;8.77;;;19.60;99.90;;;;;;5041487;28;20327;-71
2021/09/25 11:07:43;;;;;;;10.95;8.05;;;19.40;99.90;;;;;;5024862;28;20254;-72
2021/09/25 11:10:10;;;;;;;10.80;8.88;;;19.20;99.90;;;;;;5036736;28;20657;-72
2021/09/25 11:12:48;;;;;;;11.73;9.57;;;19.10;99.90;;;;;;5034726;28;20211;-72
2021/09/25 11:15:31;;;;;;;9.82;7.78;;;19.40;99.90;;;;;;5036718;28;20669;-73
2021/09/25 11:18:25;;;;;;;10.48;8.02;;;19.80;99.90;;;;;;5030467;28;20210;-70
2021/09/25 11:20:52;;;;;;;9.13;7.90;;;19.90;99.90;;;;;;5041733;28;20236;-69
2021/09/25 11:23:19;;;;;;;10.40;7.90;;;19.80;99.90;;;;;;5033650;28;20221;-71
2021/09/25 11:25:50;;;;;;;8.45;7.45;;;19.70;99.90;;;;;;5036773;28;20217;-72
2021/09/25 11:28:23;;;;;;;9.00;8.00;;;19.70;99.90;;;;;;5031716;28;20611;-71
2021/09/25 11:30:50;;;;;;;7.28;6.55;;;19.60;99.90;;;;;;5034245;28;20532;-71
2021/09/25 11:33:21;;;;;;;8.40;6.75;;;19.60;99.90;;;;;;5034234;28;20589;-70
2021/09/25 11:35:49;;;;;;;7.88;5.97;;;19.50;99.90;;;;;;5034346;28;20280;-70
2021/09/25 11:38:16;;;;;;;9.82;5.82;;;19.50;99.90;;;;;;5030659;28;20223;-70
2021/09/25 11:40:48;;;;;;;8.43;6.22;;;19.40;99.90;;;;;;5034811;28;20226;-71
2021/09/25 11:43:18;;;;;;;10.23;6.43;;;19.40;99.90;;;;;;5033579;28;20237;-69
2021/09/25 11:45:48;;;;;;;6.97;5.90;;;19.40;99.90;;;;;;5034019;28;20293;-69
2021/09/25 11:48:17;;;;;;;7.90;6.05;;;19.30;99.90;;;;;;5033899;28;20648;-72
2021/09/25 11:50:46;;;;;;;9.35;5.82;;;19.30;99.90;;;;;;5033732;28;20199;-72
2021/09/25 11:53:16;;;;;;;7.43;5.60;;;19.30;99.90;;;;;;5034477;28;20241;-72
2021/09/25 11:55:45;;;;;;;7.25;5.68;;;19.30;99.90;;;;;;5033327;28;20220;-71
2021/09/25 11:58:13;;;;;;;5.78;5.18;;;19.30;99.90;;;;;;5038328;28;20229;-72
2021/09/25 12:00:45;;;;;;;6.70;5.53;;;19.40;99.90;;;;;;5037078;28;20684;-71
2021/09/25 12:03:14;;;;;;;7.07;5.32;;;19.40;99.90;;;;;;5031964;28;20269;-72
2021/09/25 12:05:43;;;;;;;6.55;5.20;;;19.50;99.90;;;;;;5034888;28;20597;-72
2021/09/25 12:08:11;;;;;;;6.13;5.20;;;19.50;99.90;;;;;;5038733;28;20648;-72
2021/09/25 12:10:41;;;;;;;5.65;4.72;;;19.50;99.90;;;;;;5041484;28;20202;-72
2021/09/25 12:13:10;;;;;;;7.22;4.82;;;19.40;99.90;;;;;;5032846;28;20202;-72
2021/09/25 12:15:40;;;;;;;5.55;4.65;;;20.30;99.90;;;;;;5023623;28;20211;-73
2021/09/25 12:18:17;;;;;;;7.70;5.93;;;19.30;99.90;;;;;;5032079;28;20221;-71
2021/09/25 12:20:46;;;;;;;6.38;5.70;;;19.10;99.90;;;;;;5033673;28;20258;-72
2021/09/25 12:23:18;;;;;;;6.55;5.95;;;19.10;99.90;;;;;;5033913;28;20258;-72
2021/09/25 12:25:46;;;;;;;9.20;6.13;;;19.00;99.90;;;;;;5033647;28;20214;-71
2021/09/25 12:28:48;;;;;;;6.90;6.07;;;18.90;99.90;;;;;;5028043;28;20241;-70
2021/09/25 12:31:21;;;;;;;7.05;6.32;;;18.80;99.90;;;;;;4991319;28;20226;-70
2021/09/25 12:33:54;;;;;;;10.75;6.18;;;18.70;99.90;;;;;;5028626;28;20210;-70
2021/09/25 12:36:22;;;;;;;6.85;6.07;;;18.70;99.90;;;;;;5034745;28;20241;-70
2021/09/25 12:38:49;;;;;;;8.90;6.10;;;18.70;99.90;;;;;;5031571;28;20206;-70
2021/09/25 12:41:22;;;;;;;7.47;6.20;;;18.70;99.90;;;;;;5033881;28;20248;-69
2021/09/25 12:43:52;;;;;;;7.13;5.85;;;18.60;99.90;;;;;;5036015;28;20209;-69